Aérodrome :
LOGIN :

S'inscrire | Disclaimer

   EN    FR    IT 

 










Légende :    VFR   VFR Marginal   IFR   IFR Intensif   IFR Très Intensif
Visi : 
Plafond : 
>= 8 km
>= 3000ft
5 à 8 km
1000 à 3000 ft
1500m à 5 km
500 à 1000 ft
800 à 1500m
200 à 500 ft
< 800m
< 200 ft
Symboles :   Orages  Brouillard  Fortes neiges  Fortes précipitations  Vent > 20 kt
SIGMETs :   Divers  Orages  Givrage  Turbulence  Onde Orograph.  Cendres Volcan.







- Altitude de l'aérodrome : 12 ft
- Code IATA : BCN


LEBL - Barcelone

DERNIER METAR :
  • 151000Z 32011KT 9999 FEW018 SCT045 20/13 Q1006 NOSIG

METARs EXPIRÉS :
  • 150930Z 32013G23KT 290V030 9999 FEW018 SCT045 18/14 Q1005 NOSIG
  • 150900Z 33013G24KT 300V360 9999 FEW018 SCT040 19/14 Q1005 NOSIG
  • 150830Z 32013G25KT 280V360 9999 FEW018 SCT035 18/14 Q1005 NOSIG
  • 150800Z 32012G26KT 9999 FEW018 SCT030 18/13 Q1004 NOSIG
  • 150730Z 33012KT 9999 FEW018 SCT030 17/13 Q1004 NOSIG

TAF TAF LEBL
Valide du 15 à 06h jusqu'au 16 à 06h UTC


150500Z 1506/1606 33008KT 9999 SCT025 TX23/1512Z TN16/1506Z
TEMPO 1513/1517 22008KT
Pas de NOTAMs connus pour ce terrain.



MET'MAP, la Météo Aéronautique d'un coup d'oeil ! - Copyright ORBIFLY Décembre 2007 - Disclaimer

ORBIFLY MET'MAP TEAM :

Programmation & Développement : Alexandra Zaïnal
Conception & Développement : Baudouin d'Aumeries
Co-Programmation & Développement : Marc-Olivier Méhu
Soutien technique & logistique : Manuel Goepfert

Contact : metmap@orbifly.com




SOURCES & CREDITS :

   NOAA